• Join FlightAware (Why Join?)
  • Login
  • US Flag 
11:28AM EST


 

Airport Tracker/Info


-or-


 

Live Flight TrackerFlight Track Log ✈ AAL1358 ✈ 28-Jun-2013 ✈ KORD - KBOS

Flight Track Log - Related Links

Times and Time Zones

All times are in EDT time to prevent confusion due to time zone crossing. See the AAL1358 flight status page for this flight to view local times or setup timezone preferences in your user account.

Time Position Orientation Groundspeed Altitude Reporting Facility
EDT Latitude Longitude Course Direction KTS MPH feet Rate Location/Type
12:01AM 41.9950 -87.9360 330° Northwest 162 186 1,600  Level FlightAware
12:01AM 41.9990 -87.9380 340° North 158 182 1,900 2,222 Climbing FlightAware
12:01AM 42.0120 -87.9310 22° Northeast 166 191 2,600 1,588 Climbing FlightAware
12:01AM 42.0210 -87.9200 42° Northeast 188 216 2,800 1,034 Climbing FlightAware
12:02AM 42.0280 -87.9010 64° Northeast 211 243 3,100 1,500 Climbing FlightAware
12:02AM 42.0380 -87.8660 69° East 237 273 3,900 1,855 Climbing FlightAware
12:03AM 42.0500 -87.8280 67° East 255 293 4,800 2,222 Climbing FlightAware
12:03AM 42.0630 -87.7850 68° East 270 311 5,900 2,509 Climbing FlightAware
12:03AM 42.0760 -87.7410 68° East 280 322 7,100 2,836 Climbing FlightAware
12:04AM 42.0900 -87.6960 67° East 280 322 8,500 2,949 Climbing FlightAware
12:04AM 42.1060 -87.6450 67° East 288 331 10,000 2,113 Climbing FlightAware
12:05AM 42.1270 -87.5760 68° East 329 379 11,000 1,385 Climbing FlightAware
12:06AM 42.1500 -87.4980 68° East 373 429 11,800 1,950 Climbing FlightAware
12:06AM 42.1780 -87.4060 68° East 388 447 13,600 2,552 Climbing FlightAware
12:07AM 42.2090 -87.3000 68° East 409 471 15,500 2,867 Climbing FlightAware
12:08AM 42.2400 -87.1940 68° East 406 467 17,900 2,824 Climbing FlightAware
12:09AM 42.2690 -87.1010 67° East 419 482 19,500 2,308 Climbing FlightAware
12:09AM 42.2840 -87.0050 78° East 432 497 20,900 2,214 Climbing FlightAware
12:10AM 42.2880 -86.8810 87° East 442 509 22,600 1,731 Climbing FlightAware
12:11AM 42.2940 -86.7260 87° East 447 514 23,900 1,920 Climbing FlightAware
12:12AM 42.2980 -86.5940 88° East 462 532 25,800 2,188 Climbing FlightAware
12:12AM 42.3020 -86.4710 87° East 471 542 27,000 1,610 Climbing FlightAware
12:13AM 42.3070 -86.3520 87° East 477 549 28,000 1,595 Climbing FlightAware
12:14AM 42.3100 -86.2450 88° East 477 549 29,100 1,880 Climbing FlightAware
12:14AM 42.3150 -86.1170 87° East 471 542 30,600 1,641 Climbing FlightAware
12:16AM 42.3136 -85.9264 87° East 472 543 32,300 1,333 Climbing Chicago Center
12:17AM 42.3106 -85.7506 91° East 472 543 33,600 1,328 Climbing Chicago Center
12:18AM 42.3089 -85.5347 91° East 482 555 35,000 1,426 Climbing Chicago Center
12:19AM 42.3058 -85.3561 91° East 481 554 36,500 320 Climbing Chicago Center
12:24AM 42.3350 -84.4820 91° East 465 535 37,000 82 Climbing FlightAware
12:25AM 42.3510 -84.2910 83° East 464 534 37,000  Level FlightAware
12:25AM 42.3590 -84.1890 84° East 464 534 37,000  Level FlightAware
12:26AM 42.3700 -84.0540 84° East 464 534 37,000  Level FlightAware
12:27AM 42.3800 -83.9410 83° East 464 534 37,000  Level FlightAware
12:28AM 42.3900 -83.8100 84° East 467 537 37,000  Level FlightAware
12:28AM 42.3990 -83.6940 84° East 470 541 37,000  Level FlightAware
12:29AM 42.4080 -83.5780 84° East 471 542 37,000  Level FlightAware
12:29AM 42.4140 -83.5010 84° East 471 542 37,000  Level FlightAware
12:34AM 42.4720 -82.7180 84° East 475 547 37,000  Level FlightAware
12:35AM 42.4800 -82.6000 85° East 476 548 37,000  Level FlightAware
12:35AM 42.4890 -82.4660 85° East 475 547 37,000  Level FlightAware
12:36AM 42.4970 -82.3400 85° East 476 548 37,000  Level FlightAware
12:37AM 42.5080 -82.1730 85° East 475 547 37,000  Level FlightAware
12:38AM 42.5150 -82.0760 84° East 474 545 37,000  Level FlightAware
12:38AM 42.5230 -81.9510 85° East 474 545 37,000  Level FlightAware
12:39AM 42.5300 -81.8240 86° East 473 544 37,000  Level FlightAware
12:40AM 42.5380 -81.7060 85° East 472 543 37,000  Level FlightAware
12:40AM 42.5460 -81.5800 85° East 472 543 37,000  Level FlightAware
12:42AM 42.5660 -81.2430 85° East 475 547 37,000  Level FlightAware
12:43AM 42.5740 -81.0850 86° East 476 548 37,000  Level FlightAware
12:48AM 42.6190 -80.2300 86° East 476 548 37,000  Level FlightAware
12:49AM 42.6250 -80.0960 86° East 476 548 37,000  Level FlightAware
12:49AM 42.6310 -79.9760 86° East 477 549 37,000  Level FlightAware
12:50AM 42.6360 -79.8600 87° East 478 550 37,000  Level FlightAware
12:51AM 42.6420 -79.7220 87° East 480 552 37,000  Level FlightAware
12:51AM 42.6470 -79.6030 87° East 482 555 37,000  Level FlightAware
12:52AM 42.6520 -79.4830 87° East 484 557 37,000  Level FlightAware
12:53AM 42.6570 -79.3600 87° East 486 559 37,000  Level FlightAware
12:53AM 42.6630 -79.2230 87° East 486 559 37,000  Level FlightAware
12:54AM 42.6670 -79.1050 87° East 487 560 37,000  Level FlightAware
12:55AM 42.6740 -78.9340 87° East 487 560 37,000  Level FlightAware
12:56AM 42.6780 -78.8140 87° East 487 560 37,000  Level FlightAware
12:57AM 42.6860 -78.5840 87° East 486 559 37,000  Level FlightAware
12:58AM 42.6900 -78.4630 87° East 485 558 37,000  Level FlightAware
12:58AM 42.6940 -78.3250 88° East 486 559 37,000  Level FlightAware
12:59AM 42.6970 -78.2200 88° East 486 559 37,000  Level FlightAware
01:00AM 42.7020 -78.0670 87° East 487 560 37,000  Level FlightAware
01:00AM 42.7060 -77.9450 87° East 488 562 37,000  Level FlightAware
01:01AM 42.7090 -77.8070 88° East 490 564 37,000  Level FlightAware
01:02AM 42.7130 -77.6840 87° East 491 565 37,000  Level FlightAware
01:03AM 42.7160 -77.5610 88° East 491 565 37,000  Level FlightAware
01:03AM 42.7190 -77.4220 88° East 492 566 37,000  Level FlightAware
01:04AM 42.7220 -77.2980 88° East 492 566 37,000  Level FlightAware
01:05AM 42.7260 -77.0990 88° East 494 568 37,000  Level FlightAware
01:06AM 42.7290 -76.9440 88° East 496 571 37,000  Level FlightAware
01:06AM 42.7310 -76.8360 89° East 497 572 37,000  Level FlightAware
01:07AM 42.7310 -76.6790 90° East 498 573 37,000  Level FlightAware
01:08AM 42.7290 -76.5570 91° East 500 575 37,000  Level FlightAware
01:09AM 42.7260 -76.4470 92° East 501 577 37,000  Level FlightAware
01:09AM 42.7220 -76.2900 92° East 502 578 37,000  Level FlightAware
01:10AM 42.7190 -76.1660 92° East 503 579 37,000  Level FlightAware
01:10AM 42.7170 -76.0870 92° East 503 579 37,000  Level FlightAware
01:11AM 42.7140 -75.9290 91° East 503 579 37,000  Level FlightAware
01:12AM 42.7100 -75.8090 93° East 503 579 37,000  Level FlightAware
01:12AM 42.7070 -75.6840 92° East 505 581 37,000  Level FlightAware
01:13AM 42.7030 -75.5310 92° East 506 582 37,000  Level FlightAware
01:14AM 42.6990 -75.3990 92° East 506 582 37,000  Level FlightAware
01:15AM 42.6950 -75.2830 93° East 507 583 37,000  Level FlightAware
01:15AM 42.6900 -75.1520 93° East 507 583 37,000  Level FlightAware
01:16AM 42.6830 -74.9340 92° East 507 583 37,000  Level FlightAware
01:17AM 42.6770 -74.7800 93° East 508 585 37,000  Level FlightAware
01:18AM 42.6730 -74.6580 93° East 509 586 37,000  Level FlightAware
01:19AM 42.6680 -74.5180 93° East 511 588 37,000  Level FlightAware
01:19AM 42.6620 -74.3750 93° East 514 592 37,000  Level FlightAware
01:20AM 42.6570 -74.2480 93° East 516 594 37,000  Level FlightAware
01:20AM 42.6550 -74.1985 93° East 518 596 37,000  Level FlightAware ADS-B
01:21AM 42.6460 -73.9820 93° East 519 597 37,000  Level FlightAware
01:22AM 42.6390 -73.8330 94° East 518 596 37,000 -488 Level FlightAware
01:23AM 42.6330 -73.7050 94° East 511 588 36,300 -1,222 Descending FlightAware
01:23AM 42.6311 -73.6591 93° East 517 595 35,900 -2,182 Descending FlightAware ADS-B
01:23AM 42.6270 -73.5650 93° East 508 585 34,700 -2,449 Descending FlightAware
01:24AM 42.6239 -73.5043 94° East 515 593 33,900 -2,338 Descending FlightAware ADS-B
01:25AM 42.6150 -73.3200 94° East 508 585 31,700 -1,773 Descending FlightAware
01:26AM 42.6050 -73.1090 94° East 519 597 30,000 -1,525 Descending FlightAware
01:27AM 42.6190 -73.4160 274° West 515 593 28,700 -2,471 Descending FlightAware
01:28AM 42.5870 -72.7760 94° East 500 575 25,800 -3,515 Descending FlightAware
01:28AM 42.5790 -72.6330 94° East 485 558 22,900 -3,253 Descending FlightAware
01:29AM 42.5720 -72.5110 94° East 464 534 21,300 -2,268 Descending FlightAware
01:30AM 42.5660 -72.3940 94° East 456 525 19,800 -2,250 Descending FlightAware
01:31AM 42.5570 -72.2370 94° East 438 504 17,700 -2,220 Descending FlightAware
01:31AM 42.5490 -72.1210 95° East 432 497 16,100 -2,143 Descending FlightAware
01:32AM 42.5420 -72.0140 95° East 425 489 14,700 -2,122 Descending FlightAware
01:33AM 42.5320 -71.9030 97° East 417 480 13,200 -1,884 Descending FlightAware
01:34AM 42.5210 -71.7900 97° East 412 474 12,000 -1,286 Descending FlightAware
01:34AM 42.5120 -71.6890 97° East 404 465 11,400 -438 Descending FlightAware
01:35AM 42.5150 -71.5530 88° East 365 420 11,300 -438 Descending FlightAware
01:36AM 42.5270 -71.4720 79° East 334 384 10,700 -1,286 Descending FlightAware
01:36AM 42.5370 -71.4080 78° East 319 367 9,800 -1,900 Descending FlightAware
01:37AM 42.5450 -71.3510 79° East 317 365 8,800 -1,950 Descending FlightAware
01:37AM 42.5470 -71.3320 82° East 313 360 8,500 -1,886 Descending FlightAware
01:37AM 42.5530 -71.2850 80° East 309 356 7,700 -1,855 Descending FlightAware
01:38AM 42.5590 -71.2250 82° East 299 344 6,800 -1,733 Descending FlightAware
01:38AM 42.5630 -71.1980 79° East 292 336 6,400 -1,867 Descending FlightAware
01:39AM 42.5690 -71.1470 81° East 294 338 5,400 -2,100 Descending FlightAware
01:39AM 42.5760 -71.0900 81° East 288 331 4,300 -1,821 Descending FlightAware
01:40AM 42.5800 -71.0480 83° East 280 322 3,700 -692 Descending FlightAware
01:40AM 42.5810 -70.9670 89° East 217 250 3,400 -269 Descending FlightAware
01:41AM 42.5690 -70.9560 146° Southeast 191 220 3,400 -267 Level FlightAware
01:41AM 42.5440 -70.9430 159° South 193 222 3,200 -533 Descending FlightAware
01:41AM 42.5320 -70.9370 160° South 190 219 3,000 -600 Descending FlightAware
01:42AM 42.5180 -70.9330 168° South 179 206 2,900 -439 Descending FlightAware
01:42AM 42.5020 -70.9390 195° South 179 206 2,700 -480 Descending FlightAware
01:42AM 42.4820 -70.9480 198° South 177 204 2,500 -667 Descending FlightAware
01:43AM 42.4630 -70.9570 199° South 163 188 2,200 -842 Descending FlightAware
01:43AM 42.4410 -70.9680 200° South 141 162 1,700 -750 Descending FlightAware
01:44AM 42.4290 -70.9740 200° South 136 157 1,500 -667 Descending FlightAware
01:44AM 42.4150 -70.9810 200° South 134 154 1,200 -645 Descending FlightAware
01:45AM 42.3789 -71.0011 200° South 146 168 500 -618 Descending Boston Center
01:48AM 42.3630 -71.0064 180° South  Level Estimated